sensor_id;sensor_type;location;lat;lon;timestamp;pressure;altitude;pressure_sealevel;temperature;humidity
3444;BME280;1736;52.068;6.968;2024-02-15T00:00:56;101834.75;;;11.89;100.00
3444;BME280;1736;52.068;6.968;2024-02-15T00:03:25;101828.38;;;11.79;100.00
3444;BME280;1736;52.068;6.968;2024-02-15T00:05:51;101828.81;;;11.85;100.00
3444;BME280;1736;52.068;6.968;2024-02-15T00:08:18;101830.19;;;11.91;100.00
3444;BME280;1736;52.068;6.968;2024-02-15T00:10:45;101825.38;;;11.96;100.00
3444;BME280;1736;52.068;6.968;2024-02-15T00:13:14;101834.44;;;11.93;100.00
3444;BME280;1736;52.068;6.968;2024-02-15T00:15:41;101832.84;;;11.91;100.00
3444;BME280;1736;52.068;6.968;2024-02-15T00:18:07;101824.09;;;11.89;100.00
3444;BME280;1736;52.068;6.968;2024-02-15T00:20:34;101831.88;;;11.92;100.00
3444;BME280;1736;52.068;6.968;2024-02-15T00:23:01;101832.59;;;11.94;100.00
3444;BME280;1736;52.068;6.968;2024-02-15T00:25:27;101836.97;;;11.95;100.00
3444;BME280;1736;52.068;6.968;2024-02-15T00:27:54;101833.88;;;12.01;100.00
3444;BME280;1736;52.068;6.968;2024-02-15T00:30:22;101821.09;;;12.06;100.00
3444;BME280;1736;52.068;6.968;2024-02-15T00:32:48;101816.63;;;11.94;100.00
3444;BME280;1736;52.068;6.968;2024-02-15T00:35:16;101818.25;;;11.96;100.00
3444;BME280;1736;52.068;6.968;2024-02-15T00:37:44;101815.69;;;11.95;100.00
3444;BME280;1736;52.068;6.968;2024-02-15T00:40:11;101814.94;;;11.93;100.00
3444;BME280;1736;52.068;6.968;2024-02-15T00:42:38;101821.13;;;11.93;100.00
3444;BME280;1736;52.068;6.968;2024-02-15T00:45:05;101808.78;;;11.92;100.00
3444;BME280;1736;52.068;6.968;2024-02-15T00:47:34;101808.91;;;11.91;100.00
3444;BME280;1736;52.068;6.968;2024-02-15T00:50:01;101816.47;;;11.84;100.00
3444;BME280;1736;52.068;6.968;2024-02-15T00:52:28;101822.09;;;11.92;100.00
3444;BME280;1736;52.068;6.968;2024-02-15T00:54:56;101815.41;;;11.87;100.00
3444;BME280;1736;52.068;6.968;2024-02-15T00:57:22;101823.91;;;11.92;100.00
3444;BME280;1736;52.068;6.968;2024-02-15T00:59:49;101820.47;;;11.90;100.00
3444;BME280;1736;52.068;6.968;2024-02-15T01:02:17;101827.72;;;11.88;100.00
3444;BME280;1736;52.068;6.968;2024-02-15T01:04:45;101831.88;;;11.92;100.00
3444;BME280;1736;52.068;6.968;2024-02-15T01:07:11;101822.31;;;11.89;100.00
3444;BME280;1736;52.068;6.968;2024-02-15T01:09:38;101820.06;;;11.83;100.00
3444;BME280;1736;52.068;6.968;2024-02-15T01:12:05;101827.63;;;11.89;100.00
3444;BME280;1736;52.068;6.968;2024-02-15T01:14:32;101823.47;;;11.85;100.00
3444;BME280;1736;52.068;6.968;2024-02-15T01:16:59;101833.91;;;11.88;100.00
3444;BME280;1736;52.068;6.968;2024-02-15T01:19:26;101822.94;;;11.93;100.00
3444;BME280;1736;52.068;6.968;2024-02-15T01:21:54;101822.19;;;11.91;100.00
3444;BME280;1736;52.068;6.968;2024-02-15T01:24:21;101831.97;;;11.90;100.00
3444;BME280;1736;52.068;6.968;2024-02-15T01:26:47;101826.03;;;11.87;100.00
3444;BME280;1736;52.068;6.968;2024-02-15T01:29:14;101836.69;;;11.87;100.00
3444;BME280;1736;52.068;6.968;2024-02-15T01:31:42;101832.53;;;11.83;100.00
3444;BME280;1736;52.068;6.968;2024-02-15T01:34:08;101830.28;;;11.89;100.00
3444;BME280;1736;52.068;6.968;2024-02-15T01:36:35;101825.38;;;11.83;100.00
3444;BME280;1736;52.068;6.968;2024-02-15T01:39:03;101824.75;;;11.80;100.00
3444;BME280;1736;52.068;6.968;2024-02-15T01:41:29;101825.63;;;11.80;100.00
3444;BME280;1736;52.068;6.968;2024-02-15T01:44:14;101827.72;;;11.88;100.00
3444;BME280;1736;52.068;6.968;2024-02-15T01:46:40;101833.25;;;11.85;100.00
3444;BME280;1736;52.068;6.968;2024-02-15T01:49:08;101829.97;;;11.81;100.00
3444;BME280;1736;52.068;6.968;2024-02-15T01:51:35;101824.97;;;11.89;100.00
3444;BME280;1736;52.068;6.968;2024-02-15T01:54:05;101819.75;;;11.88;100.00
3444;BME280;1736;52.068;6.968;2024-02-15T01:56:31;101813.50;;;11.76;100.00
3444;BME280;1736;52.068;6.968;2024-02-15T01:58:58;101820.06;;;11.83;100.00
3444;BME280;1736;52.068;6.968;2024-02-15T02:01:27;101814.22;;;11.78;100.00
3444;BME280;1736;52.068;6.968;2024-02-15T02:03:54;101814.88;;;11.82;100.00
3444;BME280;1736;52.068;6.968;2024-02-15T02:06:20;101815.81;;;11.81;100.00
3444;BME280;1736;52.068;6.968;2024-02-15T02:08:47;101811.97;;;11.85;100.00
3444;BME280;1736;52.068;6.968;2024-02-15T02:11:15;101798.38;;;11.77;100.00
3444;BME280;1736;52.068;6.968;2024-02-15T02:13:41;101799.09;;;11.91;100.00
3444;BME280;1736;52.068;6.968;2024-02-15T02:16:26;101798.06;;;11.81;100.00
3444;BME280;1736;52.068;6.968;2024-02-15T02:18:54;101793.06;;;11.77;100.00
3444;BME280;1736;52.068;6.968;2024-02-15T02:21:21;101804.75;;;11.87;100.00
3444;BME280;1736;52.068;6.968;2024-02-15T02:23:52;101797.97;;;11.83;100.00
3444;BME280;1736;52.068;6.968;2024-02-15T02:26:21;101788.59;;;11.77;100.00
3444;BME280;1736;52.068;6.968;2024-02-15T02:28:47;101829.78;;;11.84;100.00
3444;BME280;1736;52.068;6.968;2024-02-15T02:31:14;101801.34;;;11.85;100.00
3444;BME280;1736;52.068;6.968;2024-02-15T02:33:41;101796.88;;;11.85;100.00
3444;BME280;1736;52.068;6.968;2024-02-15T02:36:08;101795.72;;;11.89;100.00
3444;BME280;1736;52.068;6.968;2024-02-15T02:38:37;101789.75;;;11.86;100.00
3444;BME280;1736;52.068;6.968;2024-02-15T02:41:05;101794.53;;;11.81;100.00
3444;BME280;1736;52.068;6.968;2024-02-15T02:43:33;101787.75;;;11.77;100.00
3444;BME280;1736;52.068;6.968;2024-02-15T02:45:59;101797.19;;;11.81;100.00
3444;BME280;1736;52.068;6.968;2024-02-15T02:48:26;101787.84;;;11.88;100.00
3444;BME280;1736;52.068;6.968;2024-02-15T02:50:52;101783.69;;;11.84;100.00
3444;BME280;1736;52.068;6.968;2024-02-15T02:53:19;101784.72;;;11.94;100.00
3444;BME280;1736;52.068;6.968;2024-02-15T02:55:45;101784.22;;;11.89;100.00
3444;BME280;1736;52.068;6.968;2024-02-15T02:58:12;101786.91;;;11.76;100.00
3444;BME280;1736;52.068;6.968;2024-02-15T03:00:40;101776.69;;;11.83;100.00
3444;BME280;1736;52.068;6.968;2024-02-15T03:03:07;101790.72;;;11.85;100.00
3444;BME280;1736;52.068;6.968;2024-02-15T03:05:34;101778.69;;;11.79;100.00
3444;BME280;1736;52.068;6.968;2024-02-15T03:08:01;101783.19;;;11.79;100.00
3444;BME280;1736;52.068;6.968;2024-02-15T03:10:27;101774.44;;;11.77;100.00
3444;BME280;1736;52.068;6.968;2024-02-15T03:12:54;101771.38;;;11.83;100.00
3444;BME280;1736;52.068;6.968;2024-02-15T03:15:21;101780.53;;;11.79;100.00
3444;BME280;1736;52.068;6.968;2024-02-15T03:17:50;101771.56;;;11.80;100.00
3444;BME280;1736;52.068;6.968;2024-02-15T03:20:17;101762.63;;;11.81;100.00
3444;BME280;1736;52.068;6.968;2024-02-15T03:22:51;101757.31;;;11.81;100.00
3444;BME280;1736;52.068;6.968;2024-02-15T03:25:18;101756.25;;;11.83;100.00
3444;BME280;1736;52.068;6.968;2024-02-15T03:27:48;101757.00;;;11.85;100.00
3444;BME280;1736;52.068;6.968;2024-02-15T03:30:17;101749.34;;;11.81;100.00
3444;BME280;1736;52.068;6.968;2024-02-15T03:32:44;101756.38;;;11.82;100.00
3444;BME280;1736;52.068;6.968;2024-02-15T03:35:12;101754.34;;;11.85;100.00
3444;BME280;1736;52.068;6.968;2024-02-15T03:37:39;101756.47;;;11.80;100.00
3444;BME280;1736;52.068;6.968;2024-02-15T03:40:07;101759.53;;;11.87;100.00
3444;BME280;1736;52.068;6.968;2024-02-15T03:42:34;101752.00;;;11.81;100.00
3444;BME280;1736;52.068;6.968;2024-02-15T03:45:02;101754.53;;;11.82;100.00
3444;BME280;1736;52.068;6.968;2024-02-15T03:47:28;101758.06;;;11.83;100.00
3444;BME280;1736;52.068;6.968;2024-02-15T03:49:55;101752.00;;;11.81;100.00
3444;BME280;1736;52.068;6.968;2024-02-15T03:52:23;101759.25;;;11.79;100.00
3444;BME280;1736;52.068;6.968;2024-02-15T03:54:50;101744.88;;;11.81;100.00
3444;BME280;1736;52.068;6.968;2024-02-15T03:57:17;101752.44;;;11.75;100.00
3444;BME280;1736;52.068;6.968;2024-02-15T03:59:46;101744.06;;;11.68;100.00
3444;BME280;1736;52.068;6.968;2024-02-15T04:02:15;101744.97;;;11.80;100.00
3444;BME280;1736;52.068;6.968;2024-02-15T04:04:42;101755.31;;;11.72;100.00
3444;BME280;1736;52.068;6.968;2024-02-15T04:07:12;101745.66;;;11.71;100.00
3444;BME280;1736;52.068;6.968;2024-02-15T04:09:40;101743.81;;;11.71;100.00
3444;BME280;1736;52.068;6.968;2024-02-15T04:12:06;101737.22;;;11.77;100.00
3444;BME280;1736;52.068;6.968;2024-02-15T04:14:33;101743.00;;;11.71;100.00
3444;BME280;1736;52.068;6.968;2024-02-15T04:17:00;101735.22;;;11.68;100.00
3444;BME280;1736;52.068;6.968;2024-02-15T04:19:26;101742.78;;;11.74;100.00
3444;BME280;1736;52.068;6.968;2024-02-15T04:21:53;101743.19;;;11.68;100.00
3444;BME280;1736;52.068;6.968;2024-02-15T04:24:20;101733.53;;;11.67;100.00
3444;BME280;1736;52.068;6.968;2024-02-15T04:26:49;101751.19;;;11.68;100.00
3444;BME280;1736;52.068;6.968;2024-02-15T04:29:17;101731.09;;;11.64;100.00
3444;BME280;1736;52.068;6.968;2024-02-15T04:31:45;101738.84;;;11.67;100.00
3444;BME280;1736;52.068;6.968;2024-02-15T04:34:14;101737.16;;;11.66;100.00
3444;BME280;1736;52.068;6.968;2024-02-15T04:36:41;101745.84;;;11.68;100.00
3444;BME280;1736;52.068;6.968;2024-02-15T04:39:08;101735.00;;;11.71;100.00
3444;BME280;1736;52.068;6.968;2024-02-15T04:41:35;101738.63;;;11.70;100.00
3444;BME280;1736;52.068;6.968;2024-02-15T04:44:05;101730.88;;;11.67;100.00
3444;BME280;1736;52.068;6.968;2024-02-15T04:46:35;101726.06;;;11.72;100.00
3444;BME280;1736;52.068;6.968;2024-02-15T04:49:01;101742.88;;;11.72;100.00
3444;BME280;1736;52.068;6.968;2024-02-15T04:51:28;101728.00;;;11.70;100.00
3444;BME280;1736;52.068;6.968;2024-02-15T04:53:58;101720.97;;;11.69;100.00
3444;BME280;1736;52.068;6.968;2024-02-15T04:56:27;101719.66;;;11.74;100.00
3444;BME280;1736;52.068;6.968;2024-02-15T04:58:54;101703.94;;;11.71;100.00
3444;BME280;1736;52.068;6.968;2024-02-15T05:01:22;101691.72;;;11.69;100.00
3444;BME280;1736;52.068;6.968;2024-02-15T05:03:49;101690.13;;;11.66;100.00
3444;BME280;1736;52.068;6.968;2024-02-15T05:06:16;101692.88;;;11.65;100.00
3444;BME280;1736;52.068;6.968;2024-02-15T05:08:42;101685.03;;;11.63;100.00
3444;BME280;1736;52.068;6.968;2024-02-15T05:11:09;101679.94;;;11.60;100.00
3444;BME280;1736;52.068;6.968;2024-02-15T05:13:40;101680.13;;;11.57;100.00
3444;BME280;1736;52.068;6.968;2024-02-15T05:16:07;101685.34;;;11.59;100.00
3444;BME280;1736;52.068;6.968;2024-02-15T05:18:34;101689.69;;;11.60;100.00
3444;BME280;1736;52.068;6.968;2024-02-15T05:21:01;101688.34;;;11.67;100.00
3444;BME280;1736;52.068;6.968;2024-02-15T05:23:28;101698.56;;;11.60;100.00
3444;BME280;1736;52.068;6.968;2024-02-15T05:25:55;101697.59;;;11.61;100.00
3444;BME280;1736;52.068;6.968;2024-02-15T05:28:23;101595.50;;;11.64;100.00
3444;BME280;1736;52.068;6.968;2024-02-15T05:31:08;101707.44;;;11.72;100.00
3444;BME280;1736;52.068;6.968;2024-02-15T05:33:36;101712.88;;;11.70;100.00
3444;BME280;1736;52.068;6.968;2024-02-15T05:36:04;101714.56;;;11.71;100.00
3444;BME280;1736;52.068;6.968;2024-02-15T05:38:30;101710.69;;;11.64;100.00
3444;BME280;1736;52.068;6.968;2024-02-15T05:40:57;101705.47;;;11.63;100.00
3444;BME280;1736;52.068;6.968;2024-02-15T05:43:23;101701.72;;;11.65;100.00
3444;BME280;1736;52.068;6.968;2024-02-15T05:45:50;101701.41;;;11.70;100.00
3444;BME280;1736;52.068;6.968;2024-02-15T05:48:18;101698.00;;;11.68;100.00
3444;BME280;1736;52.068;6.968;2024-02-15T05:50:46;101697.56;;;11.74;100.00
3444;BME280;1736;52.068;6.968;2024-02-15T05:53:12;101695.03;;;11.72;100.00
3444;BME280;1736;52.068;6.968;2024-02-15T05:55:39;101685.66;;;11.67;100.00
3444;BME280;1736;52.068;6.968;2024-02-15T05:58:09;101689.06;;;11.69;100.00
3444;BME280;1736;52.068;6.968;2024-02-15T06:00:39;101674.56;;;11.73;100.00
3444;BME280;1736;52.068;6.968;2024-02-15T06:03:06;101680.34;;;11.67;100.00
3444;BME280;1736;52.068;6.968;2024-02-15T06:05:34;101666.66;;;11.84;100.00
3444;BME280;1736;52.068;6.968;2024-02-15T06:08:02;101669.25;;;11.73;100.00
3444;BME280;1736;52.068;6.968;2024-02-15T06:10:29;101675.88;;;11.67;100.00
3444;BME280;1736;52.068;6.968;2024-02-15T06:12:56;101660.56;;;11.71;100.00
3444;BME280;1736;52.068;6.968;2024-02-15T06:15:24;101661.00;;;11.65;100.00
3444;BME280;1736;52.068;6.968;2024-02-15T06:17:51;101662.47;;;11.69;100.00
3444;BME280;1736;52.068;6.968;2024-02-15T06:20:17;101660.25;;;11.63;100.00
3444;BME280;1736;52.068;6.968;2024-02-15T06:22:45;101653.44;;;11.59;100.00
3444;BME280;1736;52.068;6.968;2024-02-15T06:25:13;101667.50;;;11.61;100.00
3444;BME280;1736;52.068;6.968;2024-02-15T06:27:45;101665.69;;;11.61;100.00
3444;BME280;1736;52.068;6.968;2024-02-15T06:30:12;101667.06;;;11.67;100.00
3444;BME280;1736;52.068;6.968;2024-02-15T06:32:56;101666.09;;;11.68;100.00
3444;BME280;1736;52.068;6.968;2024-02-15T06:35:40;101675.03;;;11.67;100.00
3444;BME280;1736;52.068;6.968;2024-02-15T06:38:21;101680.34;;;11.67;100.00
3444;BME280;1736;52.068;6.968;2024-02-15T06:41:06;101676.84;;;11.66;100.00
3444;BME280;1736;52.068;6.968;2024-02-15T06:43:33;101670.78;;;11.64;100.00
3444;BME280;1736;52.068;6.968;2024-02-15T06:46:00;101662.38;;;11.58;100.00
3444;BME280;1736;52.068;6.968;2024-02-15T06:48:26;101668.25;;;11.63;100.00
3444;BME280;1736;52.068;6.968;2024-02-15T06:50:53;101667.16;;;11.65;100.00
3444;BME280;1736;52.068;6.968;2024-02-15T06:53:19;101671.97;;;11.60;100.00
3444;BME280;1736;52.068;6.968;2024-02-15T06:55:46;101669.31;;;11.60;100.00
3444;BME280;1736;52.068;6.968;2024-02-15T06:58:15;101647.38;;;11.57;100.00
3444;BME280;1736;52.068;6.968;2024-02-15T07:00:42;101634.06;;;11.57;100.00
3444;BME280;1736;52.068;6.968;2024-02-15T07:03:08;101633.25;;;11.56;100.00
3444;BME280;1736;52.068;6.968;2024-02-15T07:05:36;101627.94;;;11.56;100.00
3444;BME280;1736;52.068;6.968;2024-02-15T07:08:04;101626.34;;;11.54;100.00
3444;BME280;1736;52.068;6.968;2024-02-15T07:10:31;101612.53;;;11.49;100.00
3444;BME280;1736;52.068;6.968;2024-02-15T07:12:57;101614.53;;;11.58;100.00
3444;BME280;1736;52.068;6.968;2024-02-15T07:15:26;101611.88;;;11.58;100.00
3444;BME280;1736;52.068;6.968;2024-02-15T07:17:53;101609.53;;;11.53;100.00
3444;BME280;1736;52.068;6.968;2024-02-15T07:20:20;101613.78;;;11.56;100.00
3444;BME280;1736;52.068;6.968;2024-02-15T07:22:48;101636.63;;;11.58;100.00
3444;BME280;1736;52.068;6.968;2024-02-15T07:25:14;101637.59;;;11.57;100.00
3444;BME280;1736;52.068;6.968;2024-02-15T07:27:41;101644.00;;;11.55;100.00
3444;BME280;1736;52.068;6.968;2024-02-15T07:30:08;101662.47;;;11.69;100.00
3444;BME280;1736;52.068;6.968;2024-02-15T07:32:36;101675.69;;;11.58;100.00
3444;BME280;1736;52.068;6.968;2024-02-15T07:35:03;101686.97;;;11.61;100.00
3444;BME280;1736;52.068;6.968;2024-02-15T07:37:32;101672.06;;;11.59;100.00
3444;BME280;1736;52.068;6.968;2024-02-15T07:39:59;101689.06;;;11.56;100.00
3444;BME280;1736;52.068;6.968;2024-02-15T07:42:26;101687.34;;;11.55;100.00
3444;BME280;1736;52.068;6.968;2024-02-15T07:44:52;101688.75;;;11.61;100.00
3444;BME280;1736;52.068;6.968;2024-02-15T07:47:19;101700.53;;;11.57;100.00
3444;BME280;1736;52.068;6.968;2024-02-15T07:49:50;101687.13;;;11.58;100.00
3444;BME280;1736;52.068;6.968;2024-02-15T07:52:17;101680.56;;;11.64;100.00
3444;BME280;1736;52.068;6.968;2024-02-15T07:54:44;101686.94;;;11.74;100.00
3444;BME280;1736;52.068;6.968;2024-02-15T07:57:11;101684.59;;;11.69;100.00
3444;BME280;1736;52.068;6.968;2024-02-15T07:59:39;101683.75;;;11.69;100.00
3444;BME280;1736;52.068;6.968;2024-02-15T08:02:05;101681.19;;;11.67;100.00
3444;BME280;1736;52.068;6.968;2024-02-15T08:04:32;101683.13;;;11.65;100.00
3444;BME280;1736;52.068;6.968;2024-02-15T08:07:06;101681.72;;;11.72;100.00
3444;BME280;1736;52.068;6.968;2024-02-15T08:09:36;101679.69;;;11.76;100.00
3444;BME280;1736;52.068;6.968;2024-02-15T08:12:03;101683.31;;;11.75;100.00
3444;BME280;1736;52.068;6.968;2024-02-15T08:14:29;101682.44;;;11.74;100.00
3444;BME280;1736;52.068;6.968;2024-02-15T08:16:56;101678.00;;;11.75;100.00
3444;BME280;1736;52.068;6.968;2024-02-15T08:19:23;101684.56;;;11.82;100.00
3444;BME280;1736;52.068;6.968;2024-02-15T08:21:50;101679.25;;;11.82;100.00
3444;BME280;1736;52.068;6.968;2024-02-15T08:24:18;101691.31;;;11.86;100.00
3444;BME280;1736;52.068;6.968;2024-02-15T08:26:45;101688.16;;;11.81;100.00
3444;BME280;1736;52.068;6.968;2024-02-15T08:29:12;101676.91;;;11.77;100.00
3444;BME280;1736;52.068;6.968;2024-02-15T08:31:40;101681.38;;;11.77;100.00
3444;BME280;1736;52.068;6.968;2024-02-15T08:34:07;101686.25;;;11.83;100.00
3444;BME280;1736;52.068;6.968;2024-02-15T08:36:36;101686.06;;;11.73;100.00
3444;BME280;1736;52.068;6.968;2024-02-15T08:39:05;101677.13;;;11.74;100.00
3444;BME280;1736;52.068;6.968;2024-02-15T08:41:34;101683.53;;;11.72;100.00
3444;BME280;1736;52.068;6.968;2024-02-15T08:44:01;101682.84;;;11.81;100.00
3444;BME280;1736;52.068;6.968;2024-02-15T08:46:31;101681.66;;;11.85;100.00
3444;BME280;1736;52.068;6.968;2024-02-15T08:48:57;101677.03;;;11.76;100.00
3444;BME280;1736;52.068;6.968;2024-02-15T08:51:25;101681.16;;;11.80;100.00
3444;BME280;1736;52.068;6.968;2024-02-15T08:53:52;101683.59;;;11.83;100.00
3444;BME280;1736;52.068;6.968;2024-02-15T08:56:19;101685.06;;;11.87;100.00
3444;BME280;1736;52.068;6.968;2024-02-15T08:58:46;101679.00;;;11.85;100.00
3444;BME280;1736;52.068;6.968;2024-02-15T09:01:13;101688.81;;;11.84;100.00
3444;BME280;1736;52.068;6.968;2024-02-15T09:03:41;101683.81;;;11.80;100.00
3444;BME280;1736;52.068;6.968;2024-02-15T09:06:10;101823.91;;;11.79;100.00
3444;BME280;1736;52.068;6.968;2024-02-15T09:08:36;101786.25;;;11.85;100.00
3444;BME280;1736;52.068;6.968;2024-02-15T09:11:03;101716.53;;;11.93;100.00
3444;BME280;1736;52.068;6.968;2024-02-15T09:13:30;101718.28;;;11.81;100.00
3444;BME280;1736;52.068;6.968;2024-02-15T09:15:59;101715.81;;;11.91;100.00
3444;BME280;1736;52.068;6.968;2024-02-15T09:18:25;101719.00;;;11.83;100.00
3444;BME280;1736;52.068;6.968;2024-02-15T09:20:52;101712.50;;;11.87;100.00
3444;BME280;1736;52.068;6.968;2024-02-15T09:23:20;101704.19;;;11.92;100.00
3444;BME280;1736;52.068;6.968;2024-02-15T09:25:48;101711.78;;;11.85;100.00
3444;BME280;1736;52.068;6.968;2024-02-15T09:28:17;101706.88;;;11.79;100.00
3444;BME280;1736;52.068;6.968;2024-02-15T09:30:47;101697.00;;;11.81;100.00
3444;BME280;1736;52.068;6.968;2024-02-15T09:33:18;101703.44;;;11.90;100.00
3444;BME280;1736;52.068;6.968;2024-02-15T09:35:44;101699.78;;;11.80;100.00
3444;BME280;1736;52.068;6.968;2024-02-15T09:38:12;101700.06;;;11.88;100.00
3444;BME280;1736;52.068;6.968;2024-02-15T09:40:38;101692.00;;;11.77;100.00
3444;BME280;1736;52.068;6.968;2024-02-15T09:43:07;101702.88;;;11.74;100.00
3444;BME280;1736;52.068;6.968;2024-02-15T09:45:34;101680.34;;;11.67;100.00
3444;BME280;1736;52.068;6.968;2024-02-15T09:48:05;101688.66;;;11.62;100.00
3444;BME280;1736;52.068;6.968;2024-02-15T09:50:35;101683.84;;;11.67;100.00
3444;BME280;1736;52.068;6.968;2024-02-15T09:53:02;101684.19;;;11.63;100.00
3444;BME280;1736;52.068;6.968;2024-02-15T09:55:33;101681.19;;;11.67;100.00
3444;BME280;1736;52.068;6.968;2024-02-15T09:58:00;101685.66;;;11.67;100.00
3444;BME280;1736;52.068;6.968;2024-02-15T10:00:30;101697.59;;;11.61;100.00
3444;BME280;1736;52.068;6.968;2024-02-15T10:02:57;101678.41;;;11.69;100.00
3444;BME280;1736;52.068;6.968;2024-02-15T10:05:26;101693.28;;;11.71;100.00
3444;BME280;1736;52.068;6.968;2024-02-15T10:07:54;101685.22;;;11.73;100.00
3444;BME280;1736;52.068;6.968;2024-02-15T10:10:22;101695.66;;;11.63;100.00
3444;BME280;1736;52.068;6.968;2024-02-15T10:12:49;101671.72;;;11.63;100.00
3444;BME280;1736;52.068;6.968;2024-02-15T10:15:31;101689.44;;;11.75;100.00
3444;BME280;1736;52.068;6.968;2024-02-15T10:17:59;101687.44;;;11.79;100.00
3444;BME280;1736;52.068;6.968;2024-02-15T10:20:26;101667.56;;;11.72;100.00
3444;BME280;1736;52.068;6.968;2024-02-15T10:23:09;101661.81;;;11.78;100.00
3444;BME280;1736;52.068;6.968;2024-02-15T10:25:36;101659.88;;;11.80;100.00
3444;BME280;1736;52.068;6.968;2024-02-15T10:28:03;101659.25;;;11.76;100.00
3444;BME280;1736;52.068;6.968;2024-02-15T10:30:33;101668.44;;;11.72;100.00
3444;BME280;1736;52.068;6.968;2024-02-15T10:33:00;101654.22;;;11.84;100.00
3444;BME280;1736;52.068;6.968;2024-02-15T10:35:28;101660.50;;;11.83;100.00
3444;BME280;1736;52.068;6.968;2024-02-15T10:38:05;101657.00;;;11.83;100.00
3444;BME280;1736;52.068;6.968;2024-02-15T10:40:33;101631.13;;;11.85;100.00
3444;BME280;1736;52.068;6.968;2024-02-15T10:43:02;101635.47;;;11.86;100.00
3444;BME280;1736;52.068;6.968;2024-02-15T10:45:30;101609.03;;;11.84;100.00
3444;BME280;1736;52.068;6.968;2024-02-15T10:47:57;101612.50;;;11.85;100.00
3444;BME280;1736;52.068;6.968;2024-02-15T10:50:23;101608.88;;;11.86;100.00
3444;BME280;1736;52.068;6.968;2024-02-15T10:52:54;101626.66;;;11.85;100.00
3444;BME280;1736;52.068;6.968;2024-02-15T10:55:35;101638.66;;;11.91;100.00
3444;BME280;1736;52.068;6.968;2024-02-15T10:58:06;101648.72;;;11.98;100.00
3444;BME280;1736;52.068;6.968;2024-02-15T11:00:33;101643.91;;;12.03;100.00
3444;BME280;1736;52.068;6.968;2024-02-15T11:03:03;101657.88;;;12.18;100.00
3444;BME280;1736;52.068;6.968;2024-02-15T11:05:32;101648.47;;;12.25;100.00
3444;BME280;1736;52.068;6.968;2024-02-15T11:08:02;101643.25;;;12.23;100.00
3444;BME280;1736;52.068;6.968;2024-02-15T11:10:31;101651.28;;;12.34;100.00
3444;BME280;1736;52.068;6.968;2024-02-15T11:12:58;101637.88;;;12.36;100.00
3444;BME280;1736;52.068;6.968;2024-02-15T11:15:42;101632.06;;;12.42;100.00
3444;BME280;1736;52.068;6.968;2024-02-15T11:18:12;101622.66;;;12.49;100.00
3444;BME280;1736;52.068;6.968;2024-02-15T11:20:51;101627.28;;;12.58;100.00
3444;BME280;1736;52.068;6.968;2024-02-15T11:23:25;101607.91;;;12.56;100.00
3444;BME280;1736;52.068;6.968;2024-02-15T11:25:54;101613.84;;;12.59;100.00
3444;BME280;1736;52.068;6.968;2024-02-15T11:28:36;101598.84;;;12.58;100.00
3444;BME280;1736;52.068;6.968;2024-02-15T11:31:05;101598.47;;;12.63;100.00
3444;BME280;1736;52.068;6.968;2024-02-15T11:33:33;101586.75;;;12.65;100.00
3444;BME280;1736;52.068;6.968;2024-02-15T11:36:04;101576.09;;;12.76;100.00
3444;BME280;1736;52.068;6.968;2024-02-15T11:38:31;101567.00;;;12.79;100.00
3444;BME280;1736;52.068;6.968;2024-02-15T11:41:01;101570.63;;;12.78;100.00
3444;BME280;1736;52.068;6.968;2024-02-15T11:44:02;101564.47;;;12.77;100.00
3444;BME280;1736;52.068;6.968;2024-02-15T11:46:28;101556.84;;;12.84;100.00
3444;BME280;1736;52.068;6.968;2024-02-15T11:49:00;101549.34;;;12.89;100.00
3444;BME280;1736;52.068;6.968;2024-02-15T11:51:32;101555.75;;;12.97;100.00
3444;BME280;1736;52.068;6.968;2024-02-15T11:54:03;101552.59;;;12.92;100.00
3444;BME280;1736;52.068;6.968;2024-02-15T11:56:50;101548.16;;;13.04;100.00
3444;BME280;1736;52.068;6.968;2024-02-15T11:59:19;101544.97;;;13.21;100.00
3444;BME280;1736;52.068;6.968;2024-02-15T12:01:55;101539.81;;;13.40;100.00
3444;BME280;1736;52.068;6.968;2024-02-15T12:04:39;101527.22;;;13.42;100.00
3444;BME280;1736;52.068;6.968;2024-02-15T12:07:23;101535.75;;;13.67;100.00
3444;BME280;1736;52.068;6.968;2024-02-15T12:10:15;101521.50;;;13.78;100.00
3444;BME280;1736;52.068;6.968;2024-02-15T12:13:00;101508.94;;;13.89;100.00
3444;BME280;1736;52.068;6.968;2024-02-15T12:15:56;101518.34;;;14.04;100.00
3444;BME280;1736;52.068;6.968;2024-02-15T12:18:41;101284.47;;;14.13;100.00
3444;BME280;1736;52.068;6.968;2024-02-15T12:21:14;101386.69;;;14.04;100.00
3444;BME280;1736;52.068;6.968;2024-02-15T12:23:42;101361.25;;;14.00;100.00
3444;BME280;1736;52.068;6.968;2024-02-15T12:26:10;101369.00;;;14.03;100.00
3444;BME280;1736;52.068;6.968;2024-02-15T12:28:41;101340.16;;;13.97;100.00
3444;BME280;1736;52.068;6.968;2024-02-15T12:31:09;101328.53;;;13.98;100.00
3444;BME280;1736;52.068;6.968;2024-02-15T12:33:38;101337.38;;;13.98;100.00
3444;BME280;1736;52.068;6.968;2024-02-15T12:36:05;101328.38;;;13.90;100.00
3444;BME280;1736;52.068;6.968;2024-02-15T12:38:32;101332.34;;;13.95;100.00
3444;BME280;1736;52.068;6.968;2024-02-15T12:40:59;101320.81;;;13.95;100.00
3444;BME280;1736;52.068;6.968;2024-02-15T12:43:27;101319.81;;;13.96;100.00
3444;BME280;1736;52.068;6.968;2024-02-15T12:45:55;101304.56;;;14.07;100.00
3444;BME280;1736;52.068;6.968;2024-02-15T12:48:22;101312.56;;;14.17;100.00
3444;BME280;1736;52.068;6.968;2024-02-15T12:50:49;101304.56;;;14.17;100.00
3444;BME280;1736;52.068;6.968;2024-02-15T12:53:21;101302.47;;;14.11;100.00
3444;BME280;1736;52.068;6.968;2024-02-15T12:55:52;101282.41;;;14.16;100.00
3444;BME280;1736;52.068;6.968;2024-02-15T12:58:19;101291.44;;;14.34;100.00
3444;BME280;1736;52.068;6.968;2024-02-15T13:00:49;101290.31;;;14.37;100.00
3444;BME280;1736;52.068;6.968;2024-02-15T13:03:17;101289.63;;;14.35;100.00
3444;BME280;1736;52.068;6.968;2024-02-15T13:05:44;101283.47;;;14.44;100.00
3444;BME280;1736;52.068;6.968;2024-02-15T13:08:14;101293.16;;;14.45;100.00